Time;durP1;ratioP1;P1;durP2;ratioP2;P2;SDS_P1;SDS_P2;PMS_P1;PMS_P2;Temp;Humidity;BMP_temperature;BMP_pressure;BME280_temperature;BME280_humidity;BME280_pressure;Samples;Min_cycle;Max_cycle;Signal;HPM_P1;HPM_P2
2022/10/27 00:00:15;;;;;;;6.67;4.10;;;20.50;60.90;;;;;;5041268;28;20197;-53
2022/10/27 00:02:41;;;;;;;6.57;4.63;;;20.40;60.00;;;;;;5041739;28;20256;-55
2022/10/27 00:05:07;;;;;;;8.60;4.23;;;20.40;60.80;;;;;;5040706;28;20280;-54
2022/10/27 00:07:36;;;;;;;5.00;4.53;;;20.40;61.00;;;;;;5044415;28;20201;-53
2022/10/27 00:10:02;;;;;;;9.53;4.20;;;20.50;61.10;;;;;;5040148;28;20522;-54
2022/10/27 00:12:29;;;;;;;4.63;4.23;;;20.50;60.80;;;;;;5045459;28;20447;-54
2022/10/27 00:14:55;;;;;;;4.77;4.37;;;20.40;60.40;;;;;;5046766;28;20461;-50
2022/10/27 00:17:20;;;;;;;5.27;4.70;;;20.40;60.60;;;;;;5041800;28;20451;-53
2022/10/27 00:19:46;;;;;;;8.80;4.73;;;20.20;60.10;;;;;;5047401;28;20283;-54
2022/10/27 00:22:12;;;;;;;8.80;4.70;;;20.20;61.00;;;;;;5040676;28;20232;-54
2022/10/27 00:24:37;;;;;;;11.90;5.17;;;20.30;60.70;;;;;;5043989;28;20197;-54
2022/10/27 00:27:03;;;;;;;9.13;4.83;;;20.20;59.90;;;;;;5048784;28;20268;-53
2022/10/27 00:29:28;;;;;;;5.57;4.40;;;20.10;60.40;;;;;;5044613;28;20203;-53
2022/10/27 00:31:54;;;;;;;4.50;4.10;;;19.90;60.50;;;;;;5041006;28;20207;-54
2022/10/27 00:34:19;;;;;;;4.70;4.30;;;19.90;61.70;;;;;;5036914;28;20644;-53
2022/10/27 00:36:45;;;;;;;5.30;4.60;;;20.00;61.60;;;;;;5040236;28;20236;-53
2022/10/27 00:39:11;;;;;;;6.43;4.27;;;19.90;61.40;;;;;;5039475;28;20197;-52
2022/10/27 00:41:39;;;;;;;6.80;4.23;;;19.90;61.60;;;;;;5036681;28;20724;-50
2022/10/27 00:44:33;;;;;;;6.97;4.43;;;19.90;60.70;;;;;;5036153;28;20188;-53
2022/10/27 00:47:03;;;;;;;10.63;4.40;;;20.00;60.30;;;;;;5046382;28;20451;-54
2022/10/27 00:49:34;;;;;;;6.50;4.70;;;19.80;59.90;;;;;;5020029;28;21046;-54
2022/10/27 00:52:03;;;;;;;5.97;4.00;;;19.80;61.60;;;;;;5040189;28;20799;-52
2022/10/27 00:54:36;;;;;;;12.33;4.63;;;19.80;61.40;;;;;;5039445;28;20862;-53
2022/10/27 00:57:04;;;;;;;6.07;3.93;;;19.90;61.60;;;;;;5039042;28;20808;-54
2022/10/27 00:59:30;;;;;;;6.40;4.33;;;19.90;61.00;;;;;;5043346;28;20492;-51
2022/10/27 01:01:55;;;;;;;5.33;4.83;;;19.80;61.40;;;;;;5040458;28;20487;-53
2022/10/27 01:04:46;;;;;;;4.67;4.10;;;19.80;61.00;;;;;;5043328;28;20220;-53
2022/10/27 01:07:15;;;;;;;6.10;4.00;;;19.70;61.20;;;;;;5039631;28;20205;-54
2022/10/27 01:09:42;;;;;;;6.20;3.93;;;19.70;60.70;;;;;;5049855;28;20434;-53
2022/10/27 01:12:07;;;;;;;5.40;3.70;;;19.70;61.40;;;;;;5045775;28;20442;-54
2022/10/27 01:14:33;;;;;;;5.83;4.33;;;19.60;61.70;;;;;;5047153;28;20942;-53
2022/10/27 01:17:23;;;;;;;4.60;3.47;;;19.50;61.90;;;;;;5042677;28;20560;-53
2022/10/27 01:20:06;;;;;;;5.70;3.47;;;19.40;62.50;;;;;;5046511;28;20196;-53
2022/10/27 01:22:50;;;;;;;4.50;4.10;;;19.30;62.90;;;;;;5047680;28;20627;-54
2022/10/27 01:25:38;;;;;;;4.30;3.90;;;19.30;63.30;;;;;;5033368;28;21160;-54
2022/10/27 01:28:22;;;;;;;4.83;3.50;;;19.40;63.20;;;;;;5050274;28;20454;-52
2022/10/27 01:31:28;;;;;;;4.20;3.80;;;19.40;62.60;;;;;;5050523;28;21239;-53
2022/10/27 01:34:09;;;;;;;5.50;4.00;;;19.60;61.60;;;;;;5013939;28;21029;-54
2022/10/27 01:36:51;;;;;;;9.03;4.63;;;19.70;61.60;;;;;;5045958;28;20524;-54
2022/10/27 01:39:26;;;;;;;7.70;3.50;;;19.70;61.10;;;;;;5052810;28;20451;-54
2022/10/27 01:41:59;;;;;;;7.30;3.50;;;19.70;61.10;;;;;;5031128;28;20899;-53
2022/10/27 01:44:40;;;;;;;6.23;3.70;;;19.70;59.80;;;;;;5052690;28;20481;-54
2022/10/27 01:47:08;;;;;;;4.13;3.77;;;19.70;59.80;;;;;;5046249;28;20442;-55
2022/10/27 01:49:38;;;;;;;4.80;3.70;;;19.70;60.40;;;;;;5046083;28;20824;-54
2022/10/27 01:52:06;;;;;;;3.60;3.33;;;19.70;60.70;;;;;;5043336;28;20439;-53
2022/10/27 01:54:34;;;;;;;3.70;3.40;;;19.70;60.80;;;;;;5049320;28;20494;-53
2022/10/27 01:57:23;;;;;;;3.70;3.37;;;19.70;60.90;;;;;;5048672;28;20435;-53
2022/10/27 02:00:07;;;;;;;7.23;4.10;;;19.60;60.90;;;;;;5048597;28;20926;-54
2022/10/27 02:02:44;;;;;;;4.30;3.00;;;19.70;60.80;;;;;;5046140;28;20497;-53
2022/10/27 02:05:25;;;;;;;9.40;4.47;;;19.60;61.10;;;;;;5047289;28;20442;-53
2022/10/27 02:08:06;;;;;;;11.00;4.10;;;19.60;60.90;;;;;;5044818;28;20550;-53
2022/10/27 02:10:40;;;;;;;5.70;3.70;;;19.40;61.70;;;;;;5052279;28;20518;-53
2022/10/27 02:13:07;;;;;;;4.63;4.23;;;19.10;61.30;;;;;;5051113;28;20706;-55
2022/10/27 02:15:48;;;;;;;4.93;3.70;;;19.10;62.00;;;;;;5049243;28;20509;-54
2022/10/27 02:18:18;;;;;;;4.33;3.93;;;19.10;62.40;;;;;;5036069;28;20448;-54
2022/10/27 02:20:49;;;;;;;11.60;4.83;;;19.10;62.10;;;;;;5049381;28;20575;-53
2022/10/27 02:23:19;;;;;;;29.03;4.63;;;18.90;60.90;;;;;;5043796;28;20488;-53
2022/10/27 02:26:08;;;;;;;51.20;6.20;;;18.50;61.40;;;;;;5052692;28;21067;-53
2022/10/27 02:29:01;;;;;;;5.17;3.77;;;18.20;62.20;;;;;;5042458;28;20487;-53
2022/10/27 02:31:39;;;;;;;3.90;3.50;;;17.90;63.60;;;;;;5017928;28;20451;-52
2022/10/27 02:34:05;;;;;;;9.57;4.27;;;17.90;64.20;;;;;;5047224;28;20945;-53
2022/10/27 02:36:31;;;;;;;16.03;4.53;;;17.60;64.90;;;;;;5045466;28;20514;-53
2022/10/27 02:38:57;;;;;;;4.60;3.70;;;17.50;65.60;;;;;;5046354;28;20993;-52
2022/10/27 02:41:23;;;;;;;5.13;3.97;;;17.50;65.50;;;;;;5042266;28;20574;-53
2022/10/27 02:43:48;;;;;;;4.50;3.53;;;17.40;65.60;;;;;;5051353;28;20279;-52
2022/10/27 02:46:14;;;;;;;5.37;3.83;;;17.20;65.80;;;;;;5051629;28;20254;-51
2022/10/27 02:48:39;;;;;;;6.37;4.10;;;17.20;65.90;;;;;;5048918;28;20219;-52
2022/10/27 02:51:05;;;;;;;8.47;4.03;;;17.20;65.50;;;;;;5051871;28;20204;-51
2022/10/27 02:53:31;;;;;;;7.80;3.80;;;17.00;66.20;;;;;;5047742;28;20231;-50
2022/10/27 02:55:56;;;;;;;19.70;5.63;;;16.90;67.00;;;;;;5046741;28;20702;-51
2022/10/27 02:58:22;;;;;;;13.80;3.97;;;16.90;67.10;;;;;;5047870;28;20201;-49
2022/10/27 03:00:51;;;;;;;17.40;4.90;;;16.90;67.20;;;;;;5044268;28;20271;-52
2022/10/27 03:03:17;;;;;;;4.23;3.80;;;16.80;67.30;;;;;;5046242;28;20193;-52
2022/10/27 03:05:42;;;;;;;6.70;4.23;;;16.70;67.60;;;;;;5048442;28;20443;-50
2022/10/27 03:08:08;;;;;;;4.97;4.07;;;16.60;67.90;;;;;;5041716;28;20221;-49
2022/10/27 03:10:33;;;;;;;6.30;5.40;;;16.70;67.70;;;;;;5047654;28;20200;-49
2022/10/27 03:12:59;;;;;;;5.00;4.03;;;16.80;67.00;;;;;;5048668;28;20250;-49
2022/10/27 03:15:24;;;;;;;5.00;4.50;;;16.90;66.60;;;;;;5045965;28;20303;-51
2022/10/27 03:17:50;;;;;;;8.80;4.20;;;16.90;66.60;;;;;;5047772;28;20193;-52
2022/10/27 03:20:16;;;;;;;4.27;3.93;;;16.90;66.30;;;;;;5040445;28;20193;-50
2022/10/27 03:22:42;;;;;;;4.50;3.77;;;16.90;66.00;;;;;;5042032;28;20692;-52
2022/10/27 03:25:10;;;;;;;4.47;4.07;;;16.90;66.50;;;;;;5047271;28;20423;-50
2022/10/27 03:27:38;;;;;;;5.30;4.80;;;16.60;66.90;;;;;;5040110;28;20200;-52
2022/10/27 03:30:04;;;;;;;5.67;3.93;;;16.40;67.90;;;;;;5047984;28;20530;-50
2022/10/27 03:32:30;;;;;;;20.03;3.97;;;16.30;69.00;;;;;;5043036;28;20455;-51
2022/10/27 03:34:55;;;;;;;110.80;9.83;;;16.10;70.10;;;;;;5035802;28;20472;-53
2022/10/27 03:37:21;;;;;;;11.73;4.40;;;15.80;70.60;;;;;;5042900;28;20232;-50
2022/10/27 03:39:46;;;;;;;29.90;5.30;;;15.60;72.90;;;;;;5040721;28;21105;-51
2022/10/27 03:42:12;;;;;;;57.03;6.20;;;15.80;71.70;;;;;;5043321;28;20232;-50
2022/10/27 03:44:38;;;;;;;17.70;4.27;;;15.50;71.80;;;;;;5042016;28;20203;-50
2022/10/27 03:47:03;;;;;;;33.33;5.63;;;15.40;72.90;;;;;;5042965;28;20188;-49
2022/10/27 03:49:29;;;;;;;15.07;4.70;;;15.50;73.50;;;;;;5045921;28;20555;-51
2022/10/27 03:51:55;;;;;;;107.03;9.10;;;15.60;73.00;;;;;;5045147;28;20201;-51
2022/10/27 03:54:20;;;;;;;40.07;5.40;;;15.80;72.10;;;;;;5040520;28;20318;-51
2022/10/27 03:56:46;;;;;;;27.97;5.30;;;15.90;71.50;;;;;;5044808;28;20439;-50
2022/10/27 03:59:11;;;;;;;80.77;7.70;;;15.90;71.00;;;;;;5040858;28;20322;-51
2022/10/27 04:01:37;;;;;;;9.93;3.93;;;15.80;71.30;;;;;;5041291;28;20263;-50
2022/10/27 04:04:03;;;;;;;37.77;6.00;;;15.70;71.40;;;;;;5046703;28;20192;-50
2022/10/27 04:06:29;;;;;;;17.00;4.83;;;15.80;71.40;;;;;;5042830;28;20640;-49
2022/10/27 04:08:55;;;;;;;5.07;4.17;;;15.80;71.30;;;;;;5043653;28;20436;-52
2022/10/27 04:11:21;;;;;;;8.43;4.00;;;15.70;71.30;;;;;;5044855;28;20447;-49
2022/10/27 04:13:46;;;;;;;9.70;4.23;;;15.70;71.20;;;;;;5046457;28;20271;-49
2022/10/27 04:16:12;;;;;;;4.50;4.10;;;15.60;71.30;;;;;;5048584;28;20652;-49
2022/10/27 04:18:37;;;;;;;12.53;4.60;;;15.60;71.20;;;;;;5045860;28;20310;-50
2022/10/27 04:21:04;;;;;;;7.20;3.90;;;15.50;71.30;;;;;;5049313;28;20312;-51
2022/10/27 04:23:31;;;;;;;8.40;5.23;;;15.60;71.90;;;;;;5043263;28;20203;-50
2022/10/27 04:25:57;;;;;;;18.30;4.87;;;15.70;71.40;;;;;;5038650;28;20483;-51
2022/10/27 04:28:22;;;;;;;8.83;4.20;;;15.70;71.40;;;;;;5045745;28;20435;-49
2022/10/27 04:30:48;;;;;;;7.40;4.43;;;15.10;73.40;;;;;;5049821;28;20526;-52
2022/10/27 04:33:14;;;;;;;6.30;4.80;;;15.10;74.60;;;;;;5042300;28;20197;-50
2022/10/27 04:35:40;;;;;;;6.77;4.57;;;15.30;74.00;;;;;;5050287;28;20450;-50
2022/10/27 04:38:05;;;;;;;8.43;4.33;;;15.50;73.50;;;;;;5045913;28;20422;-51
2022/10/27 04:40:31;;;;;;;6.93;4.93;;;15.70;72.80;;;;;;5047575;28;20193;-50
2022/10/27 04:42:57;;;;;;;5.70;4.70;;;15.90;72.00;;;;;;5045129;28;20231;-53
2022/10/27 04:45:23;;;;;;;7.83;4.67;;;16.00;71.20;;;;;;5046265;28;20197;-50
2022/10/27 04:47:48;;;;;;;9.83;4.70;;;16.10;70.70;;;;;;5046104;28;20219;-53
2022/10/27 04:50:15;;;;;;;5.33;4.83;;;16.10;70.10;;;;;;5048846;28;20800;-53
2022/10/27 04:52:41;;;;;;;15.83;5.13;;;16.00;70.10;;;;;;5048273;28;20199;-51
2022/10/27 04:55:08;;;;;;;21.53;6.67;;;15.90;70.10;;;;;;5048164;28;20435;-53
2022/10/27 04:57:34;;;;;;;38.77;7.83;;;15.60;71.00;;;;;;5046087;28;20558;-53
2022/10/27 04:59:59;;;;;;;21.13;6.43;;;15.50;72.10;;;;;;5046318;28;20435;-52
2022/10/27 05:02:25;;;;;;;10.50;4.97;;;15.50;72.30;;;;;;5042506;28;20489;-51
2022/10/27 05:04:51;;;;;;;32.70;6.27;;;15.50;72.00;;;;;;5040499;28;20570;-51
2022/10/27 05:07:16;;;;;;;25.57;6.53;;;15.40;72.60;;;;;;5048820;28;20194;-52
2022/10/27 05:09:42;;;;;;;5.20;4.70;;;15.30;72.50;;;;;;5047549;28;20618;-49
2022/10/27 05:12:07;;;;;;;7.00;4.80;;;15.30;73.30;;;;;;5047934;28;20227;-53
2022/10/27 05:14:33;;;;;;;61.13;7.37;;;15.40;72.90;;;;;;5045805;28;20208;-53
2022/10/27 05:16:59;;;;;;;62.60;8.03;;;15.20;72.70;;;;;;5046822;28;20192;-53
2022/10/27 05:19:24;;;;;;;28.13;6.93;;;15.10;72.90;;;;;;5040100;28;20198;-53
2022/10/27 05:21:50;;;;;;;8.40;4.47;;;15.00;73.90;;;;;;5036100;28;20639;-53
2022/10/27 05:24:15;;;;;;;18.83;5.67;;;14.80;74.70;;;;;;5039450;28;20345;-54
2022/10/27 05:26:41;;;;;;;33.00;6.50;;;15.10;74.30;;;;;;5038969;28;20251;-54
2022/10/27 05:29:06;;;;;;;10.50;4.63;;;15.30;73.10;;;;;;5035420;28;20192;-54
2022/10/27 05:31:32;;;;;;;16.63;5.90;;;15.40;74.10;;;;;;5040446;28;20200;-54
2022/10/27 05:33:58;;;;;;;4.87;4.33;;;15.50;74.00;;;;;;5043272;28;20282;-54
2022/10/27 05:36:23;;;;;;;5.93;5.23;;;15.70;74.50;;;;;;5037257;28;20189;-54
2022/10/27 05:38:49;;;;;;;7.30;5.30;;;15.80;74.50;;;;;;5040255;28;20199;-54
2022/10/27 05:41:14;;;;;;;5.87;3.80;;;16.10;73.50;;;;;;5037547;28;20302;-54
2022/10/27 05:43:43;;;;;;;19.10;5.30;;;16.20;71.60;;;;;;5040243;28;20196;-55
2022/10/27 05:46:09;;;;;;;12.43;4.60;;;16.10;69.60;;;;;;5045056;28;20189;-53
2022/10/27 05:48:34;;;;;;;9.43;4.70;;;15.70;70.20;;;;;;5047065;28;20935;-54
2022/10/27 05:51:00;;;;;;;5.97;4.07;;;15.60;72.80;;;;;;5036885;28;20197;-54
2022/10/27 05:53:25;;;;;;;7.70;4.50;;;15.60;71.20;;;;;;5046633;28;20199;-53
2022/10/27 05:55:53;;;;;;;5.30;4.47;;;15.70;71.00;;;;;;5050340;28;20188;-54
2022/10/27 05:58:19;;;;;;;16.27;4.57;;;15.70;70.90;;;;;;5047099;28;20196;-54
2022/10/27 06:00:44;;;;;;;6.93;4.43;;;16.00;70.80;;;;;;5052725;28;20450;-54
2022/10/27 06:03:22;;;;;;;10.33;4.33;;;16.10;69.20;;;;;;5049048;28;20439;-54
2022/10/27 06:05:48;;;;;;;5.73;4.20;;;16.20;68.80;;;;;;5049775;28;20204;-54
2022/10/27 06:08:14;;;;;;;17.93;4.27;;;16.20;68.30;;;;;;5040527;28;20792;-52
2022/10/27 06:10:41;;;;;;;6.50;4.10;;;15.50;70.70;;;;;;5050841;28;20515;-54
2022/10/27 06:13:07;;;;;;;11.73;4.60;;;15.60;71.50;;;;;;5050725;28;20435;-55
2022/10/27 06:15:33;;;;;;;6.77;4.30;;;15.70;70.70;;;;;;5042214;28;20498;-54
2022/10/27 06:17:59;;;;;;;6.73;5.70;;;15.70;69.70;;;;;;5038233;28;20450;-54
2022/10/27 06:20:24;;;;;;;8.03;5.30;;;16.00;69.80;;;;;;5050438;28;20435;-54
2022/10/27 06:22:50;;;;;;;5.37;4.70;;;16.20;69.70;;;;;;5040091;28;20228;-53
2022/10/27 06:25:16;;;;;;;13.63;6.80;;;16.40;69.00;;;;;;5041462;28;20188;-54
2022/10/27 06:27:42;;;;;;;6.67;4.53;;;16.50;68.60;;;;;;5028023;28;20205;-51
2022/10/27 06:30:08;;;;;;;5.30;4.90;;;16.60;67.40;;;;;;5047438;28;20451;-54
2022/10/27 06:32:40;;;;;;;8.70;5.50;;;16.70;67.40;;;;;;5038256;28;20204;-55
2022/10/27 06:35:07;;;;;;;4.43;4.10;;;16.90;67.30;;;;;;5039321;28;20444;-56
2022/10/27 06:37:32;;;;;;;6.10;5.50;;;17.10;67.20;;;;;;5045291;28;20497;-55
2022/10/27 06:39:58;;;;;;;6.57;4.70;;;17.20;66.30;;;;;;5046050;28;20428;-53
2022/10/27 06:42:24;;;;;;;6.90;6.00;;;17.30;65.00;;;;;;5049351;28;20716;-56
2022/10/27 06:44:50;;;;;;;5.93;4.80;;;17.30;64.60;;;;;;5048943;28;20197;-55
2022/10/27 06:47:16;;;;;;;6.17;5.50;;;17.30;63.90;;;;;;5048835;28;20224;-54
2022/10/27 06:49:41;;;;;;;8.23;5.13;;;17.40;64.00;;;;;;5048262;28;20490;-55
2022/10/27 06:52:07;;;;;;;6.73;5.97;;;17.40;64.00;;;;;;5041812;28;20597;-55
2022/10/27 06:54:33;;;;;;;5.80;4.97;;;17.40;63.90;;;;;;5030688;28;20534;-55
2022/10/27 06:56:58;;;;;;;7.40;5.07;;;17.50;63.90;;;;;;5033090;28;20561;-57
2022/10/27 06:59:24;;;;;;;9.70;4.90;;;17.60;64.00;;;;;;5032580;28;20213;-54
2022/10/27 07:01:49;;;;;;;5.63;5.07;;;17.80;63.90;;;;;;5039514;28;20219;-55
2022/10/27 07:04:15;;;;;;;4.77;4.37;;;18.00;63.60;;;;;;5046239;28;20538;-55
2022/10/27 07:06:40;;;;;;;6.03;5.37;;;18.30;63.00;;;;;;5034310;28;20598;-56
2022/10/27 07:09:07;;;;;;;11.30;4.90;;;18.40;61.40;;;;;;5032183;28;20275;-56
2022/10/27 07:11:33;;;;;;;5.93;4.50;;;18.60;61.40;;;;;;5032317;28;20186;-56
2022/10/27 07:13:58;;;;;;;4.27;3.80;;;18.70;61.00;;;;;;5032005;28;20424;-55
2022/10/27 07:16:24;;;;;;;4.83;4.33;;;18.80;60.60;;;;;;5042678;28;20189;-55
2022/10/27 07:18:49;;;;;;;5.07;4.37;;;18.90;60.00;;;;;;5045455;28;20227;-55
2022/10/27 07:21:15;;;;;;;8.93;4.60;;;19.10;59.80;;;;;;5041259;28;21005;-56
2022/10/27 07:23:41;;;;;;;6.70;4.60;;;19.20;59.40;;;;;;5043547;28;20189;-55
2022/10/27 07:26:07;;;;;;;7.90;4.43;;;19.30;59.20;;;;;;5044308;28;20849;-56
2022/10/27 07:28:32;;;;;;;6.50;4.40;;;19.30;59.20;;;;;;5044540;28;20644;-55
2022/10/27 07:30:58;;;;;;;6.73;4.50;;;19.20;59.60;;;;;;5048495;28;20518;-55
2022/10/27 07:33:24;;;;;;;6.20;5.03;;;19.20;59.50;;;;;;5050537;28;20223;-55
2022/10/27 07:35:50;;;;;;;6.17;4.33;;;19.10;59.80;;;;;;5049223;28;20188;-55
2022/10/27 07:38:17;;;;;;;5.67;3.93;;;19.30;60.00;;;;;;5045498;28;20769;-55
2022/10/27 07:40:42;;;;;;;6.20;5.20;;;19.20;59.80;;;;;;5042880;28;20519;-56
2022/10/27 07:43:09;;;;;;;10.50;3.77;;;19.20;60.30;;;;;;5042936;28;20573;-55
2022/10/27 07:45:36;;;;;;;6.20;4.40;;;19.30;60.30;;;;;;5051482;28;20280;-55
2022/10/27 07:48:02;;;;;;;7.80;4.90;;;19.30;60.10;;;;;;5045025;28;20450;-54
2022/10/27 07:50:31;;;;;;;7.50;4.83;;;19.10;59.80;;;;;;5049028;28;20436;-55
2022/10/27 07:52:57;;;;;;;6.50;4.70;;;19.00;60.30;;;;;;5042700;28;20443;-55
2022/10/27 07:55:25;;;;;;;6.97;3.90;;;18.90;61.50;;;;;;5046014;28;20447;-55
2022/10/27 07:57:58;;;;;;;9.27;4.30;;;19.10;61.60;;;;;;5049875;28;20196;-55
2022/10/27 08:00:24;;;;;;;6.13;5.10;;;19.20;61.30;;;;;;5036983;28;20451;-55
2022/10/27 08:02:49;;;;;;;4.87;4.37;;;19.40;61.60;;;;;;5030640;28;20537;-54
2022/10/27 08:05:15;;;;;;;8.07;4.50;;;19.30;61.50;;;;;;5039393;28;20199;-55
2022/10/27 08:07:40;;;;;;;8.50;5.00;;;19.40;61.70;;;;;;5032296;28;20673;-55
2022/10/27 08:10:06;;;;;;;7.40;5.10;;;19.50;62.00;;;;;;5046012;28;20197;-51
2022/10/27 08:12:33;;;;;;;9.97;5.33;;;19.60;61.80;;;;;;5044693;28;20193;-55
2022/10/27 08:14:58;;;;;;;5.63;5.00;;;19.60;61.60;;;;;;5043223;28;20437;-55
2022/10/27 08:17:28;;;;;;;6.53;4.47;;;19.60;61.80;;;;;;5048993;28;20447;-54
2022/10/27 08:19:54;;;;;;;6.90;4.77;;;19.50;62.90;;;;;;5043682;28;20199;-52
2022/10/27 08:22:20;;;;;;;8.30;5.67;;;19.40;63.90;;;;;;5042886;28;20478;-50
2022/10/27 08:24:45;;;;;;;6.63;5.90;;;19.50;63.50;;;;;;5050648;28;20196;-54
2022/10/27 08:27:11;;;;;;;7.03;5.80;;;19.50;62.50;;;;;;5043844;28;20280;-55
2022/10/27 08:29:36;;;;;;;7.27;5.63;;;19.60;63.10;;;;;;5030864;28;20569;-56
2022/10/27 08:32:02;;;;;;;6.07;4.97;;;19.70;62.00;;;;;;5047453;28;20238;-55
2022/10/27 08:34:28;;;;;;;5.93;5.27;;;19.80;62.30;;;;;;5050839;28;20208;-55
2022/10/27 08:36:53;;;;;;;5.53;4.90;;;19.90;62.00;;;;;;5049890;28;20224;-55
2022/10/27 08:39:19;;;;;;;6.20;5.57;;;19.90;61.30;;;;;;5050576;28;20193;-55
2022/10/27 08:42:09;;;;;;;5.67;4.57;;;20.00;61.60;;;;;;5044224;28;20754;-54
2022/10/27 08:44:43;;;;;;;12.90;5.20;;;20.10;61.80;;;;;;5039133;28;20193;-52
2022/10/27 08:47:19;;;;;;;6.73;5.33;;;20.20;61.40;;;;;;5045698;28;20784;-54
2022/10/27 08:49:50;;;;;;;5.70;4.70;;;20.30;61.60;;;;;;5043078;28;20450;-52
2022/10/27 08:52:37;;;;;;;9.00;4.70;;;20.40;61.80;;;;;;5048568;28;20516;-51
2022/10/27 08:55:12;;;;;;;10.37;5.40;;;20.50;61.40;;;;;;5043853;28;20788;-52
2022/10/27 08:57:42;;;;;;;9.33;5.23;;;20.70;61.50;;;;;;5040444;28;20484;-54
2022/10/27 09:00:12;;;;;;;6.50;4.87;;;20.80;61.80;;;;;;5050191;28;20415;-51
2022/10/27 09:03:12;;;;;;;8.70;5.00;;;21.00;61.90;;;;;;5049030;28;21117;-52
2022/10/27 09:05:51;;;;;;;13.27;6.07;;;21.20;60.40;;;;;;5042214;28;20563;-54
2022/10/27 09:08:20;;;;;;;9.67;5.23;;;21.30;60.30;;;;;;5040664;28;20808;-54
2022/10/27 09:11:04;;;;;;;9.97;4.37;;;21.50;59.90;;;;;;5037772;28;20462;-55
2022/10/27 09:13:35;;;;;;;8.57;4.97;;;21.70;59.20;;;;;;5047653;28;20443;-54
2022/10/27 09:16:05;;;;;;;12.20;5.00;;;21.90;59.10;;;;;;5040492;28;20809;-51
2022/10/27 09:18:40;;;;;;;7.53;4.40;;;22.00;59.00;;;;;;5046393;28;20439;-53
2022/10/27 09:21:17;;;;;;;9.80;4.70;;;22.20;58.60;;;;;;5046671;28;20446;-52
2022/10/27 09:23:48;;;;;;;6.67;4.00;;;22.40;58.40;;;;;;5045816;28;20441;-53
2022/10/27 09:26:16;;;;;;;19.13;4.63;;;22.60;57.80;;;;;;5045953;28;20451;-52
2022/10/27 09:28:53;;;;;;;8.30;4.40;;;22.70;57.20;;;;;;5047880;28;20443;-54
2022/10/27 09:31:58;;;;;;;7.43;4.47;;;22.90;56.70;;;;;;5050480;28;20450;-54
2022/10/27 09:34:26;;;;;;;10.37;4.60;;;23.10;56.10;;;;;;5045486;28;20461;-53
2022/10/27 09:36:52;;;;;;;6.90;3.90;;;23.20;55.90;;;;;;5047407;28;20506;-53
2022/10/27 09:39:22;;;;;;;14.20;4.80;;;23.30;55.50;;;;;;5048825;28;20521;-52
2022/10/27 09:41:48;;;;;;;6.30;4.20;;;23.40;55.70;;;;;;5050560;28;20224;-54
2022/10/27 09:44:25;;;;;;;11.67;3.83;;;23.70;55.30;;;;;;5045377;28;20473;-53
2022/10/27 09:46:53;;;;;;;7.83;4.80;;;23.90;54.70;;;;;;5046995;28;20557;-56
2022/10/27 09:49:21;;;;;;;7.77;4.47;;;23.80;54.50;;;;;;5047598;28;20482;-54
2022/10/27 09:51:59;;;;;;;7.50;4.73;;;23.90;55.00;;;;;;5045367;28;20445;-56
2022/10/27 09:54:34;;;;;;;9.80;4.27;;;24.10;55.10;;;;;;5049607;28;21042;-55
2022/10/27 09:57:12;;;;;;;11.90;4.30;;;24.30;55.30;;;;;;5038067;28;20442;-56
2022/10/27 09:59:39;;;;;;;5.07;4.00;;;24.50;55.20;;;;;;5048892;28;20435;-54
2022/10/27 10:02:21;;;;;;;4.70;3.30;;;24.60;54.20;;;;;;5048799;28;20490;-55
2022/10/27 10:04:46;;;;;;;7.47;3.83;;;24.70;53.50;;;;;;5046975;28;20957;-55
2022/10/27 10:07:34;;;;;;;9.70;3.60;;;24.80;53.60;;;;;;5041349;28;20441;-57
2022/10/27 10:10:21;;;;;;;9.93;4.00;;;25.00;53.70;;;;;;5051062;28;20201;-55
2022/10/27 10:13:08;;;;;;;8.53;4.40;;;25.10;53.00;;;;;;5048284;28;20858;-55
2022/10/27 10:15:43;;;;;;;6.23;3.73;;;24.90;52.90;;;;;;5041073;28;20530;-54
2022/10/27 10:18:37;;;;;;;8.33;4.40;;;24.80;53.80;;;;;;5047230;28;20441;-53
2022/10/27 10:21:06;;;;;;;10.70;4.27;;;25.10;53.20;;;;;;5039101;28;20459;-55
2022/10/27 10:23:54;;;;;;;7.37;3.50;;;25.30;53.20;;;;;;5043709;28;20500;-54
2022/10/27 10:26:24;;;;;;;6.03;3.87;;;25.50;52.20;;;;;;5049127;28;20455;-55
2022/10/27 10:28:53;;;;;;;12.53;4.57;;;25.60;52.10;;;;;;5045439;28;20452;-56
2022/10/27 10:31:27;;;;;;;6.67;3.57;;;25.80;51.70;;;;;;5051809;28;20459;-54
2022/10/27 10:34:21;;;;;;;4.50;3.57;;;26.10;51.10;;;;;;5046578;28;20465;-54
2022/10/27 10:36:49;;;;;;;5.83;3.80;;;26.30;50.90;;;;;;5043981;28;21045;-54
2022/10/27 10:39:28;;;;;;;6.23;4.13;;;26.40;50.60;;;;;;5048146;28;20462;-55
2022/10/27 10:42:09;;;;;;;9.80;3.60;;;26.60;51.10;;;;;;5046900;28;20486;-56
2022/10/27 10:44:36;;;;;;;4.97;3.37;;;26.90;49.80;;;;;;5047547;28;20486;-57
2022/10/27 10:47:02;;;;;;;8.03;4.23;;;26.90;49.40;;;;;;5049117;28;20450;-53
2022/10/27 10:49:31;;;;;;;8.23;3.93;;;27.10;50.20;;;;;;5037117;28;20478;-54
2022/10/27 10:51:59;;;;;;;7.13;3.40;;;27.30;49.70;;;;;;5047736;28;20504;-55
2022/10/27 10:54:34;;;;;;;10.77;3.67;;;27.60;48.60;;;;;;5042561;28;21085;-55
2022/10/27 10:57:01;;;;;;;10.00;3.60;;;27.70;48.40;;;;;;5047812;28;20466;-54
2022/10/27 10:59:29;;;;;;;7.40;3.13;;;27.90;47.80;;;;;;5044029;28;20917;-54
2022/10/27 11:02:25;;;;;;;8.70;4.10;;;28.00;47.90;;;;;;5040846;28;20536;-54
2022/10/27 11:04:51;;;;;;;5.67;3.57;;;28.10;47.40;;;;;;5047157;28;20805;-55
2022/10/27 11:07:24;;;;;;;8.50;3.47;;;28.10;46.30;;;;;;5042175;28;20446;-55
2022/10/27 11:10:14;;;;;;;5.90;3.27;;;28.30;46.80;;;;;;5049797;28;20450;-54
2022/10/27 11:12:51;;;;;;;7.83;2.90;;;28.20;46.10;;;;;;5048988;28;20450;-55
2022/10/27 11:15:27;;;;;;;7.40;3.20;;;28.30;46.30;;;;;;5041393;28;20439;-55
2022/10/27 11:17:57;;;;;;;6.70;3.40;;;28.40;46.50;;;;;;5045997;28;20443;-55
2022/10/27 11:20:43;;;;;;;7.43;2.80;;;28.50;46.20;;;;;;5047034;28;21234;-55
2022/10/27 11:23:28;;;;;;;8.83;3.40;;;28.60;46.20;;;;;;5046909;28;20870;-54
2022/10/27 11:25:57;;;;;;;6.90;3.27;;;28.70;45.60;;;;;;5047475;28;20442;-55
2022/10/27 11:28:50;;;;;;;6.13;3.07;;;28.80;45.20;;;;;;5045034;28;20439;-56
2022/10/27 11:31:32;;;;;;;7.43;2.80;;;28.70;45.30;;;;;;5044269;28;20530;-55
2022/10/27 11:34:11;;;;;;;5.47;2.83;;;28.60;44.70;;;;;;5046475;28;20446;-54
2022/10/27 11:36:45;;;;;;;4.83;3.10;;;28.70;45.70;;;;;;5051954;28;20832;-55
2022/10/27 11:39:30;;;;;;;11.33;3.73;;;28.60;44.70;;;;;;5049136;28;20450;-56
2022/10/27 11:42:22;;;;;;;6.13;3.30;;;28.60;44.90;;;;;;5044376;28;20494;-55
2022/10/27 11:45:12;;;;;;;6.70;3.07;;;28.50;44.80;;;;;;5043076;28;20806;-54
2022/10/27 11:47:52;;;;;;;8.43;3.10;;;28.70;45.00;;;;;;5037663;28;20443;-55
2022/10/27 11:50:39;;;;;;;3.80;2.60;;;28.70;44.80;;;;;;5039957;28;20452;-54
2022/10/27 11:53:04;;;;;;;8.73;4.33;;;28.70;44.10;;;;;;5042999;28;20472;-55
2022/10/27 11:56:05;;;;;;;5.27;3.60;;;28.60;44.00;;;;;;5034365;28;20489;-55
2022/10/27 11:58:41;;;;;;;6.63;3.10;;;28.60;44.30;;;;;;5037812;28;20652;-55
2022/10/27 12:01:29;;;;;;;4.73;2.73;;;28.90;44.00;;;;;;5037945;28;20440;-55
2022/10/27 12:04:00;;;;;;;6.20;3.13;;;29.10;43.90;;;;;;5033733;28;20455;-54
2022/10/27 12:06:30;;;;;;;7.93;2.80;;;29.40;43.50;;;;;;5038357;28;20454;-55
2022/10/27 12:09:33;;;;;;;5.30;3.13;;;29.60;43.20;;;;;;5049351;28;20443;-56
2022/10/27 12:12:14;;;;;;;5.77;3.03;;;29.50;41.90;;;;;;5044265;28;20446;-55
2022/10/27 12:15:19;;;;;;;4.93;2.83;;;29.70;41.90;;;;;;5048997;28;20450;-55
2022/10/27 12:17:56;;;;;;;6.43;2.87;;;29.90;42.30;;;;;;5012250;28;20920;-55
2022/10/27 12:20:48;;;;;;;7.33;3.37;;;30.10;41.40;;;;;;5048726;28;20461;-54
2022/10/27 12:23:31;;;;;;;7.30;2.80;;;30.30;40.90;;;;;;5036099;28;20495;-55
2022/10/27 12:26:30;;;;;;;6.10;2.77;;;30.50;40.50;;;;;;5045213;28;20470;-56
2022/10/27 12:28:57;;;;;;;6.00;2.63;;;30.70;39.70;;;;;;5029368;28;20962;-55
2022/10/27 12:31:26;;;;;;;7.23;3.10;;;31.00;39.70;;;;;;5048806;28;20538;-54
2022/10/27 12:33:51;;;;;;;5.80;2.60;;;31.10;39.80;;;;;;5046056;28;20443;-56
2022/10/27 12:36:38;;;;;;;7.07;2.63;;;31.30;39.50;;;;;;5048524;28;20458;-55
2022/10/27 12:39:24;;;;;;;5.37;3.10;;;31.20;39.30;;;;;;5047875;28;20609;-54
2022/10/27 12:42:14;;;;;;;11.00;3.90;;;31.00;38.80;;;;;;5049976;28;20498;-55
2022/10/27 12:45:12;;;;;;;6.70;2.50;;;31.00;39.40;;;;;;5044684;28;20439;-57
2022/10/27 12:48:11;;;;;;;8.00;3.03;;;31.00;39.00;;;;;;5031847;28;20450;-55
2022/10/27 12:50:51;;;;;;;11.70;2.63;;;31.00;38.90;;;;;;5048816;28;20443;-55
2022/10/27 12:53:47;;;;;;;5.73;2.60;;;31.30;39.00;;;;;;5044423;28;20489;-55
2022/10/27 12:56:31;;;;;;;9.50;3.30;;;31.50;38.20;;;;;;5036280;28;20442;-56
2022/10/27 12:59:09;;;;;;;9.83;3.30;;;31.50;37.90;;;;;;5048255;28;20835;-55
2022/10/27 13:01:43;;;;;;;8.47;3.10;;;31.50;37.80;;;;;;5040896;28;20482;-55
2022/10/27 13:04:28;;;;;;;8.03;3.30;;;31.50;38.00;;;;;;5046346;28;20500;-55
2022/10/27 13:07:22;;;;;;;5.00;2.80;;;31.50;38.20;;;;;;5040450;28;20534;-56